sensor_id;sensor_type;location;lat;lon;timestamp;P1;durP1;ratioP1;P2;durP2;ratioP2
21354;SDS011;10835;50.148;19.760;2022-11-20T00:01:06;35.78;;;14.27;;
21354;SDS011;10835;50.148;19.760;2022-11-20T00:03:35;41.20;;;15.02;;
21354;SDS011;10835;50.148;19.760;2022-11-20T00:06:05;34.05;;;12.90;;
21354;SDS011;10835;50.148;19.760;2022-11-20T00:08:35;35.38;;;14.05;;
21354;SDS011;10835;50.148;19.760;2022-11-20T00:11:04;63.75;;;21.38;;
21354;SDS011;10835;50.148;19.760;2022-11-20T00:13:40;50.90;;;18.60;;
21354;SDS011;10835;50.148;19.760;2022-11-20T00:16:09;39.75;;;15.13;;
21354;SDS011;10835;50.148;19.760;2022-11-20T00:18:38;33.45;;;14.75;;
21354;SDS011;10835;50.148;19.760;2022-11-20T00:21:10;34.65;;;15.27;;
21354;SDS011;10835;50.148;19.760;2022-11-20T00:23:43;32.47;;;14.50;;
21354;SDS011;10835;50.148;19.760;2022-11-20T00:26:15;32.28;;;14.02;;
21354;SDS011;10835;50.148;19.760;2022-11-20T00:28:48;28.75;;;12.55;;
21354;SDS011;10835;50.148;19.760;2022-11-20T00:31:17;31.50;;;12.77;;
21354;SDS011;10835;50.148;19.760;2022-11-20T00:33:46;34.92;;;13.02;;
21354;SDS011;10835;50.148;19.760;2022-11-20T00:36:14;25.30;;;13.40;;
21354;SDS011;10835;50.148;19.760;2022-11-20T00:38:45;33.42;;;13.50;;
21354;SDS011;10835;50.148;19.760;2022-11-20T00:41:14;37.97;;;13.90;;
21354;SDS011;10835;50.148;19.760;2022-11-20T00:43:45;28.77;;;13.20;;
21354;SDS011;10835;50.148;19.760;2022-11-20T00:46:14;29.58;;;12.38;;
21354;SDS011;10835;50.148;19.760;2022-11-20T00:48:43;32.53;;;13.27;;
21354;SDS011;10835;50.148;19.760;2022-11-20T00:51:12;32.67;;;14.77;;
21354;SDS011;10835;50.148;19.760;2022-11-20T00:53:42;47.35;;;17.85;;
21354;SDS011;10835;50.148;19.760;2022-11-20T00:56:13;38.22;;;15.27;;
21354;SDS011;10835;50.148;19.760;2022-11-20T00:58:43;34.83;;;14.50;;
21354;SDS011;10835;50.148;19.760;2022-11-20T01:01:13;34.60;;;13.38;;
21354;SDS011;10835;50.148;19.760;2022-11-20T01:03:44;37.38;;;13.88;;
21354;SDS011;10835;50.148;19.760;2022-11-20T01:06:14;26.75;;;11.35;;
21354;SDS011;10835;50.148;19.760;2022-11-20T01:08:44;31.67;;;13.05;;
21354;SDS011;10835;50.148;19.760;2022-11-20T01:11:14;28.48;;;11.60;;
21354;SDS011;10835;50.148;19.760;2022-11-20T01:13:45;29.33;;;11.88;;
21354;SDS011;10835;50.148;19.760;2022-11-20T01:16:14;34.03;;;12.80;;
21354;SDS011;10835;50.148;19.760;2022-11-20T01:18:45;35.45;;;13.05;;
21354;SDS011;10835;50.148;19.760;2022-11-20T01:21:14;31.30;;;12.50;;
21354;SDS011;10835;50.148;19.760;2022-11-20T01:23:44;23.92;;;10.32;;
21354;SDS011;10835;50.148;19.760;2022-11-20T01:26:18;31.50;;;12.90;;
21354;SDS011;10835;50.148;19.760;2022-11-20T01:28:50;36.63;;;15.15;;
21354;SDS011;10835;50.148;19.760;2022-11-20T01:31:19;35.47;;;13.82;;
21354;SDS011;10835;50.148;19.760;2022-11-20T01:33:50;30.27;;;13.55;;
21354;SDS011;10835;50.148;19.760;2022-11-20T01:36:20;55.47;;;17.03;;
21354;SDS011;10835;50.148;19.760;2022-11-20T01:38:50;28.38;;;13.82;;
21354;SDS011;10835;50.148;19.760;2022-11-20T01:41:20;28.80;;;12.43;;
21354;SDS011;10835;50.148;19.760;2022-11-20T01:44:08;24.95;;;11.88;;
21354;SDS011;10835;50.148;19.760;2022-11-20T01:46:38;30.60;;;11.80;;
21354;SDS011;10835;50.148;19.760;2022-11-20T01:49:10;33.38;;;14.60;;
21354;SDS011;10835;50.148;19.760;2022-11-20T01:51:44;38.28;;;16.58;;
21354;SDS011;10835;50.148;19.760;2022-11-20T01:54:17;32.58;;;12.88;;
21354;SDS011;10835;50.148;19.760;2022-11-20T01:56:48;25.45;;;11.82;;
21354;SDS011;10835;50.148;19.760;2022-11-20T01:59:21;26.80;;;11.77;;
21354;SDS011;10835;50.148;19.760;2022-11-20T02:01:53;30.33;;;12.23;;
21354;SDS011;10835;50.148;19.760;2022-11-20T02:04:23;24.23;;;11.57;;
21354;SDS011;10835;50.148;19.760;2022-11-20T02:06:53;27.07;;;11.20;;
21354;SDS011;10835;50.148;19.760;2022-11-20T02:09:26;29.80;;;12.97;;
21354;SDS011;10835;50.148;19.760;2022-11-20T02:11:56;27.90;;;11.95;;
21354;SDS011;10835;50.148;19.760;2022-11-20T02:14:25;31.07;;;13.03;;
21354;SDS011;10835;50.148;19.760;2022-11-20T02:16:53;28.05;;;11.90;;
21354;SDS011;10835;50.148;19.760;2022-11-20T02:19:23;30.77;;;14.75;;
21354;SDS011;10835;50.148;19.760;2022-11-20T02:21:56;29.42;;;12.05;;
21354;SDS011;10835;50.148;19.760;2022-11-20T02:24:32;21.60;;;11.05;;
21354;SDS011;10835;50.148;19.760;2022-11-20T02:27:01;29.10;;;11.67;;
21354;SDS011;10835;50.148;19.760;2022-11-20T02:29:32;24.23;;;10.77;;
21354;SDS011;10835;50.148;19.760;2022-11-20T02:32:03;24.17;;;11.87;;
21354;SDS011;10835;50.148;19.760;2022-11-20T02:34:31;24.88;;;10.85;;
21354;SDS011;10835;50.148;19.760;2022-11-20T02:37:00;26.20;;;12.13;;
21354;SDS011;10835;50.148;19.760;2022-11-20T02:39:28;31.48;;;11.73;;
21354;SDS011;10835;50.148;19.760;2022-11-20T02:41:57;34.13;;;12.95;;
21354;SDS011;10835;50.148;19.760;2022-11-20T02:44:28;24.67;;;10.73;;
21354;SDS011;10835;50.148;19.760;2022-11-20T02:46:56;30.48;;;13.65;;
21354;SDS011;10835;50.148;19.760;2022-11-20T02:49:24;22.10;;;10.50;;
21354;SDS011;10835;50.148;19.760;2022-11-20T02:51:52;18.58;;;9.63;;
21354;SDS011;10835;50.148;19.760;2022-11-20T02:54:21;19.40;;;10.20;;
21354;SDS011;10835;50.148;19.760;2022-11-20T02:56:49;25.77;;;11.30;;
21354;SDS011;10835;50.148;19.760;2022-11-20T02:59:18;26.30;;;12.48;;
21354;SDS011;10835;50.148;19.760;2022-11-20T03:01:47;21.37;;;9.93;;
21354;SDS011;10835;50.148;19.760;2022-11-20T03:04:15;25.88;;;11.35;;
21354;SDS011;10835;50.148;19.760;2022-11-20T03:06:43;34.13;;;11.27;;
21354;SDS011;10835;50.148;19.760;2022-11-20T03:09:11;28.90;;;12.83;;
21354;SDS011;10835;50.148;19.760;2022-11-20T03:11:39;43.37;;;15.87;;
21354;SDS011;10835;50.148;19.760;2022-11-20T03:14:08;23.73;;;11.13;;
21354;SDS011;10835;50.148;19.760;2022-11-20T03:16:37;21.97;;;10.60;;
21354;SDS011;10835;50.148;19.760;2022-11-20T03:19:05;25.60;;;10.17;;
21354;SDS011;10835;50.148;19.760;2022-11-20T03:21:34;19.30;;;9.38;;
21354;SDS011;10835;50.148;19.760;2022-11-20T03:24:02;29.85;;;12.02;;
21354;SDS011;10835;50.148;19.760;2022-11-20T03:26:30;24.57;;;10.53;;
21354;SDS011;10835;50.148;19.760;2022-11-20T03:28:59;20.07;;;9.60;;
21354;SDS011;10835;50.148;19.760;2022-11-20T03:31:29;37.93;;;14.17;;
21354;SDS011;10835;50.148;19.760;2022-11-20T03:34:02;25.10;;;10.20;;
21354;SDS011;10835;50.148;19.760;2022-11-20T03:36:31;37.10;;;13.67;;
21354;SDS011;10835;50.148;19.760;2022-11-20T03:38:59;27.77;;;11.93;;
21354;SDS011;10835;50.148;19.760;2022-11-20T03:41:28;21.27;;;9.23;;
21354;SDS011;10835;50.148;19.760;2022-11-20T03:44:00;25.25;;;10.90;;
21354;SDS011;10835;50.148;19.760;2022-11-20T03:46:29;25.37;;;10.47;;
21354;SDS011;10835;50.148;19.760;2022-11-20T03:48:58;26.55;;;9.90;;
21354;SDS011;10835;50.148;19.760;2022-11-20T03:51:28;21.55;;;9.15;;
21354;SDS011;10835;50.148;19.760;2022-11-20T03:53:58;20.58;;;9.45;;
21354;SDS011;10835;50.148;19.760;2022-11-20T03:56:27;24.58;;;10.88;;
21354;SDS011;10835;50.148;19.760;2022-11-20T03:58:57;19.05;;;7.95;;
21354;SDS011;10835;50.148;19.760;2022-11-20T04:01:26;28.65;;;11.50;;
21354;SDS011;10835;50.148;19.760;2022-11-20T04:03:56;23.25;;;9.70;;
21354;SDS011;10835;50.148;19.760;2022-11-20T04:06:24;36.17;;;14.63;;
21354;SDS011;10835;50.148;19.760;2022-11-20T04:08:56;24.03;;;10.10;;
21354;SDS011;10835;50.148;19.760;2022-11-20T04:11:25;20.37;;;10.00;;
21354;SDS011;10835;50.148;19.760;2022-11-20T04:13:55;24.23;;;11.50;;
21354;SDS011;10835;50.148;19.760;2022-11-20T04:16:24;23.37;;;11.43;;
21354;SDS011;10835;50.148;19.760;2022-11-20T04:18:53;21.20;;;10.13;;
21354;SDS011;10835;50.148;19.760;2022-11-20T04:21:23;24.77;;;10.37;;
21354;SDS011;10835;50.148;19.760;2022-11-20T04:23:52;24.60;;;11.03;;
21354;SDS011;10835;50.148;19.760;2022-11-20T04:26:22;23.87;;;12.07;;
21354;SDS011;10835;50.148;19.760;2022-11-20T04:28:51;33.83;;;13.63;;
21354;SDS011;10835;50.148;19.760;2022-11-20T04:31:22;18.67;;;9.80;;
21354;SDS011;10835;50.148;19.760;2022-11-20T04:33:51;33.47;;;13.87;;
21354;SDS011;10835;50.148;19.760;2022-11-20T04:36:20;44.07;;;15.90;;
21354;SDS011;10835;50.148;19.760;2022-11-20T04:38:50;37.77;;;13.40;;
21354;SDS011;10835;50.148;19.760;2022-11-20T04:41:24;31.40;;;13.33;;
21354;SDS011;10835;50.148;19.760;2022-11-20T04:43:54;32.27;;;13.73;;
21354;SDS011;10835;50.148;19.760;2022-11-20T04:46:26;37.40;;;14.23;;
21354;SDS011;10835;50.148;19.760;2022-11-20T04:48:54;34.00;;;12.13;;
21354;SDS011;10835;50.148;19.760;2022-11-20T04:51:23;28.47;;;14.70;;
21354;SDS011;10835;50.148;19.760;2022-11-20T04:53:51;76.47;;;26.47;;
21354;SDS011;10835;50.148;19.760;2022-11-20T04:56:19;135.23;;;38.13;;
21354;SDS011;10835;50.148;19.760;2022-11-20T04:58:48;29.63;;;13.20;;
21354;SDS011;10835;50.148;19.760;2022-11-20T05:01:17;30.57;;;13.57;;
21354;SDS011;10835;50.148;19.760;2022-11-20T05:03:50;33.17;;;13.30;;
21354;SDS011;10835;50.148;19.760;2022-11-20T05:06:19;28.70;;;13.87;;
21354;SDS011;10835;50.148;19.760;2022-11-20T05:08:48;25.77;;;11.63;;
21354;SDS011;10835;50.148;19.760;2022-11-20T05:11:17;15.03;;;7.93;;
21354;SDS011;10835;50.148;19.760;2022-11-20T05:13:48;16.33;;;7.63;;
21354;SDS011;10835;50.148;19.760;2022-11-20T05:16:17;22.73;;;10.47;;
21354;SDS011;10835;50.148;19.760;2022-11-20T05:18:47;25.73;;;10.20;;
21354;SDS011;10835;50.148;19.760;2022-11-20T05:21:16;28.47;;;11.50;;
21354;SDS011;10835;50.148;19.760;2022-11-20T05:23:44;31.03;;;11.20;;
21354;SDS011;10835;50.148;19.760;2022-11-20T05:26:13;26.97;;;11.17;;
21354;SDS011;10835;50.148;19.760;2022-11-20T05:28:43;26.97;;;10.57;;
21354;SDS011;10835;50.148;19.760;2022-11-20T05:31:13;18.77;;;8.23;;
21354;SDS011;10835;50.148;19.760;2022-11-20T05:33:48;14.17;;;7.43;;
21354;SDS011;10835;50.148;19.760;2022-11-20T05:36:17;13.90;;;6.93;;
21354;SDS011;10835;50.148;19.760;2022-11-20T05:38:45;14.60;;;7.10;;
21354;SDS011;10835;50.148;19.760;2022-11-20T05:41:17;14.00;;;8.00;;
21354;SDS011;10835;50.148;19.760;2022-11-20T05:43:46;18.90;;;8.30;;
21354;SDS011;10835;50.148;19.760;2022-11-20T05:46:17;20.40;;;8.77;;
21354;SDS011;10835;50.148;19.760;2022-11-20T05:48:54;20.40;;;9.43;;
21354;SDS011;10835;50.148;19.760;2022-11-20T05:51:25;14.83;;;7.10;;
21354;SDS011;10835;50.148;19.760;2022-11-20T05:53:53;19.27;;;8.90;;
21354;SDS011;10835;50.148;19.760;2022-11-20T05:56:23;15.17;;;7.67;;
21354;SDS011;10835;50.148;19.760;2022-11-20T05:58:50;15.80;;;8.57;;
21354;SDS011;10835;50.148;19.760;2022-11-20T06:01:21;17.90;;;7.97;;
21354;SDS011;10835;50.148;19.760;2022-11-20T06:03:51;18.77;;;7.87;;
21354;SDS011;10835;50.148;19.760;2022-11-20T06:06:20;16.83;;;6.83;;
21354;SDS011;10835;50.148;19.760;2022-11-20T06:08:48;17.67;;;7.97;;
21354;SDS011;10835;50.148;19.760;2022-11-20T06:11:16;14.70;;;7.93;;
21354;SDS011;10835;50.148;19.760;2022-11-20T06:13:45;19.37;;;6.80;;
21354;SDS011;10835;50.148;19.760;2022-11-20T06:16:14;16.30;;;7.20;;
21354;SDS011;10835;50.148;19.760;2022-11-20T06:18:45;11.33;;;6.47;;
21354;SDS011;10835;50.148;19.760;2022-11-20T06:21:14;16.40;;;7.63;;
21354;SDS011;10835;50.148;19.760;2022-11-20T06:23:45;16.17;;;7.67;;
21354;SDS011;10835;50.148;19.760;2022-11-20T06:26:14;21.10;;;9.03;;
21354;SDS011;10835;50.148;19.760;2022-11-20T06:28:43;25.97;;;11.17;;
21354;SDS011;10835;50.148;19.760;2022-11-20T06:31:12;26.53;;;11.07;;
21354;SDS011;10835;50.148;19.760;2022-11-20T06:33:41;21.40;;;9.63;;
21354;SDS011;10835;50.148;19.760;2022-11-20T06:36:12;15.40;;;7.63;;
21354;SDS011;10835;50.148;19.760;2022-11-20T06:38:41;14.07;;;7.17;;
21354;SDS011;10835;50.148;19.760;2022-11-20T06:41:10;12.67;;;6.30;;
21354;SDS011;10835;50.148;19.760;2022-11-20T06:43:39;17.10;;;7.70;;
21354;SDS011;10835;50.148;19.760;2022-11-20T06:46:08;12.90;;;5.50;;
21354;SDS011;10835;50.148;19.760;2022-11-20T06:48:37;17.30;;;8.10;;
21354;SDS011;10835;50.148;19.760;2022-11-20T06:51:05;13.03;;;5.90;;
21354;SDS011;10835;50.148;19.760;2022-11-20T06:53:36;17.20;;;6.47;;
21354;SDS011;10835;50.148;19.760;2022-11-20T06:56:05;12.70;;;6.47;;
21354;SDS011;10835;50.148;19.760;2022-11-20T06:58:34;13.87;;;6.80;;
21354;SDS011;10835;50.148;19.760;2022-11-20T07:01:03;16.27;;;8.20;;
21354;SDS011;10835;50.148;19.760;2022-11-20T07:03:33;21.43;;;8.27;;
21354;SDS011;10835;50.148;19.760;2022-11-20T07:06:02;20.93;;;8.13;;
21354;SDS011;10835;50.148;19.760;2022-11-20T07:08:31;16.67;;;8.83;;
21354;SDS011;10835;50.148;19.760;2022-11-20T07:11:02;16.10;;;9.10;;
21354;SDS011;10835;50.148;19.760;2022-11-20T07:13:32;20.03;;;9.03;;
21354;SDS011;10835;50.148;19.760;2022-11-20T07:16:01;25.20;;;10.43;;
21354;SDS011;10835;50.148;19.760;2022-11-20T07:18:32;21.43;;;10.70;;
21354;SDS011;10835;50.148;19.760;2022-11-20T07:21:00;30.30;;;12.20;;
21354;SDS011;10835;50.148;19.760;2022-11-20T07:23:28;25.30;;;12.07;;
21354;SDS011;10835;50.148;19.760;2022-11-20T07:25:56;22.37;;;11.80;;
21354;SDS011;10835;50.148;19.760;2022-11-20T07:28:26;22.63;;;11.13;;
21354;SDS011;10835;50.148;19.760;2022-11-20T07:30:54;24.90;;;12.27;;
21354;SDS011;10835;50.148;19.760;2022-11-20T07:33:24;28.88;;;13.55;;
21354;SDS011;10835;50.148;19.760;2022-11-20T07:35:52;29.30;;;13.75;;
21354;SDS011;10835;50.148;19.760;2022-11-20T07:38:20;28.88;;;12.15;;
21354;SDS011;10835;50.148;19.760;2022-11-20T07:40:52;26.52;;;11.68;;
21354;SDS011;10835;50.148;19.760;2022-11-20T07:43:23;24.17;;;10.52;;
21354;SDS011;10835;50.148;19.760;2022-11-20T07:45:54;30.42;;;11.25;;
21354;SDS011;10835;50.148;19.760;2022-11-20T07:48:24;23.73;;;9.32;;
21354;SDS011;10835;50.148;19.760;2022-11-20T07:50:53;16.30;;;8.00;;
21354;SDS011;10835;50.148;19.760;2022-11-20T07:53:21;19.73;;;8.60;;
21354;SDS011;10835;50.148;19.760;2022-11-20T07:55:49;22.45;;;9.20;;
21354;SDS011;10835;50.148;19.760;2022-11-20T07:58:18;20.02;;;7.90;;
21354;SDS011;10835;50.148;19.760;2022-11-20T08:00:48;19.42;;;9.73;;
21354;SDS011;10835;50.148;19.760;2022-11-20T08:03:16;26.98;;;11.68;;
21354;SDS011;10835;50.148;19.760;2022-11-20T08:05:50;27.65;;;11.75;;
21354;SDS011;10835;50.148;19.760;2022-11-20T08:08:18;33.35;;;13.20;;
21354;SDS011;10835;50.148;19.760;2022-11-20T08:10:46;38.80;;;13.75;;
21354;SDS011;10835;50.148;19.760;2022-11-20T08:13:14;39.40;;;14.02;;
21354;SDS011;10835;50.148;19.760;2022-11-20T08:16:01;35.40;;;15.07;;
21354;SDS011;10835;50.148;19.760;2022-11-20T08:18:29;40.85;;;16.17;;
21354;SDS011;10835;50.148;19.760;2022-11-20T08:21:01;41.08;;;15.93;;
21354;SDS011;10835;50.148;19.760;2022-11-20T08:23:29;40.40;;;15.25;;
21354;SDS011;10835;50.148;19.760;2022-11-20T08:25:58;42.72;;;17.75;;
21354;SDS011;10835;50.148;19.760;2022-11-20T08:28:26;44.05;;;16.98;;
21354;SDS011;10835;50.148;19.760;2022-11-20T08:30:57;45.03;;;17.13;;
21354;SDS011;10835;50.148;19.760;2022-11-20T08:33:27;51.78;;;17.67;;
21354;SDS011;10835;50.148;19.760;2022-11-20T08:35:58;40.72;;;16.98;;
21354;SDS011;10835;50.148;19.760;2022-11-20T08:38:27;50.25;;;18.15;;
21354;SDS011;10835;50.148;19.760;2022-11-20T08:40:56;46.22;;;17.23;;
21354;SDS011;10835;50.148;19.760;2022-11-20T08:43:42;43.42;;;17.25;;
21354;SDS011;10835;50.148;19.760;2022-11-20T08:46:10;42.00;;;16.98;;
21354;SDS011;10835;50.148;19.760;2022-11-20T08:48:39;42.72;;;17.17;;
21354;SDS011;10835;50.148;19.760;2022-11-20T08:51:07;39.38;;;17.80;;
21354;SDS011;10835;50.148;19.760;2022-11-20T08:53:35;46.53;;;17.70;;
21354;SDS011;10835;50.148;19.760;2022-11-20T08:56:04;41.65;;;17.48;;
21354;SDS011;10835;50.148;19.760;2022-11-20T08:58:32;46.97;;;18.08;;
21354;SDS011;10835;50.148;19.760;2022-11-20T09:01:21;38.90;;;16.70;;
21354;SDS011;10835;50.148;19.760;2022-11-20T09:03:52;51.35;;;17.52;;
21354;SDS011;10835;50.148;19.760;2022-11-20T09:06:22;36.83;;;15.23;;
21354;SDS011;10835;50.148;19.760;2022-11-20T09:08:52;42.33;;;15.27;;
21354;SDS011;10835;50.148;19.760;2022-11-20T09:11:20;38.70;;;14.70;;
21354;SDS011;10835;50.148;19.760;2022-11-20T09:13:49;43.15;;;15.23;;
21354;SDS011;10835;50.148;19.760;2022-11-20T09:16:17;41.42;;;16.20;;
21354;SDS011;10835;50.148;19.760;2022-11-20T09:18:45;39.58;;;15.23;;
21354;SDS011;10835;50.148;19.760;2022-11-20T09:21:28;40.25;;;16.15;;
21354;SDS011;10835;50.148;19.760;2022-11-20T09:23:56;40.22;;;16.20;;
21354;SDS011;10835;50.148;19.760;2022-11-20T09:26:24;45.00;;;17.92;;
21354;SDS011;10835;50.148;19.760;2022-11-20T09:28:52;40.55;;;16.52;;
21354;SDS011;10835;50.148;19.760;2022-11-20T09:31:24;40.42;;;14.95;;
21354;SDS011;10835;50.148;19.760;2022-11-20T09:33:53;41.05;;;16.35;;
21354;SDS011;10835;50.148;19.760;2022-11-20T09:36:21;36.20;;;15.50;;
21354;SDS011;10835;50.148;19.760;2022-11-20T09:38:50;36.90;;;16.13;;
21354;SDS011;10835;50.148;19.760;2022-11-20T09:41:35;41.10;;;16.60;;
21354;SDS011;10835;50.148;19.760;2022-11-20T09:44:18;37.10;;;16.70;;
21354;SDS011;10835;50.148;19.760;2022-11-20T09:46:58;36.83;;;17.33;;
21354;SDS011;10835;50.148;19.760;2022-11-20T09:49:36;43.35;;;17.45;;
21354;SDS011;10835;50.148;19.760;2022-11-20T09:52:19;36.90;;;16.92;;
21354;SDS011;10835;50.148;19.760;2022-11-20T09:54:55;34.45;;;15.80;;
21354;SDS011;10835;50.148;19.760;2022-11-20T09:57:25;40.85;;;16.27;;
21354;SDS011;10835;50.148;19.760;2022-11-20T10:00:00;41.35;;;15.95;;
21354;SDS011;10835;50.148;19.760;2022-11-20T10:02:37;40.75;;;16.52;;
21354;SDS011;10835;50.148;19.760;2022-11-20T10:05:10;42.60;;;16.67;;
21354;SDS011;10835;50.148;19.760;2022-11-20T10:07:43;40.97;;;17.15;;
21354;SDS011;10835;50.148;19.760;2022-11-20T10:10:18;38.92;;;16.00;;
21354;SDS011;10835;50.148;19.760;2022-11-20T10:13:09;45.90;;;17.63;;
21354;SDS011;10835;50.148;19.760;2022-11-20T10:16:01;35.78;;;16.23;;
21354;SDS011;10835;50.148;19.760;2022-11-20T10:18:50;51.55;;;17.30;;
21354;SDS011;10835;50.148;19.760;2022-11-20T10:21:33;42.25;;;16.25;;
21354;SDS011;10835;50.148;19.760;2022-11-20T10:24:19;43.22;;;18.02;;
21354;SDS011;10835;50.148;19.760;2022-11-20T10:27:01;40.60;;;17.60;;
21354;SDS011;10835;50.148;19.760;2022-11-20T10:29:38;39.65;;;16.02;;
21354;SDS011;10835;50.148;19.760;2022-11-20T10:32:11;45.50;;;18.10;;
21354;SDS011;10835;50.148;19.760;2022-11-20T10:34:44;46.75;;;16.13;;
21354;SDS011;10835;50.148;19.760;2022-11-20T10:37:18;33.38;;;15.45;;
21354;SDS011;10835;50.148;19.760;2022-11-20T10:39:51;41.15;;;16.63;;
21354;SDS011;10835;50.148;19.760;2022-11-20T10:42:28;47.28;;;18.70;;
21354;SDS011;10835;50.148;19.760;2022-11-20T10:45:02;34.58;;;16.50;;
21354;SDS011;10835;50.148;19.760;2022-11-20T10:47:45;34.50;;;14.55;;
21354;SDS011;10835;50.148;19.760;2022-11-20T10:50:14;37.45;;;14.70;;
21354;SDS011;10835;50.148;19.760;2022-11-20T10:52:50;38.22;;;15.73;;
21354;SDS011;10835;50.148;19.760;2022-11-20T10:55:25;35.63;;;13.73;;
21354;SDS011;10835;50.148;19.760;2022-11-20T10:58:00;36.00;;;14.88;;
21354;SDS011;10835;50.148;19.760;2022-11-20T11:00:35;34.80;;;14.90;;
21354;SDS011;10835;50.148;19.760;2022-11-20T11:03:07;33.88;;;14.95;;
21354;SDS011;10835;50.148;19.760;2022-11-20T11:05:48;31.45;;;12.82;;
21354;SDS011;10835;50.148;19.760;2022-11-20T11:08:19;35.15;;;15.68;;
21354;SDS011;10835;50.148;19.760;2022-11-20T11:10:48;41.78;;;15.18;;
21354;SDS011;10835;50.148;19.760;2022-11-20T11:13:24;41.00;;;14.98;;
21354;SDS011;10835;50.148;19.760;2022-11-20T11:15:53;35.60;;;12.95;;
21354;SDS011;10835;50.148;19.760;2022-11-20T11:18:22;31.85;;;13.07;;
21354;SDS011;10835;50.148;19.760;2022-11-20T11:20:52;37.22;;;15.10;;
21354;SDS011;10835;50.148;19.760;2022-11-20T11:23:28;34.13;;;13.60;;
21354;SDS011;10835;50.148;19.760;2022-11-20T11:26:05;37.17;;;11.85;;
21354;SDS011;10835;50.148;19.760;2022-11-20T11:28:36;31.17;;;13.60;;
21354;SDS011;10835;50.148;19.760;2022-11-20T11:31:05;33.70;;;13.38;;
21354;SDS011;10835;50.148;19.760;2022-11-20T11:33:33;31.45;;;12.63;;
21354;SDS011;10835;50.148;19.760;2022-11-20T11:36:01;38.72;;;14.20;;
21354;SDS011;10835;50.148;19.760;2022-11-20T11:38:33;30.60;;;12.55;;
21354;SDS011;10835;50.148;19.760;2022-11-20T11:41:06;31.65;;;13.15;;
21354;SDS011;10835;50.148;19.760;2022-11-20T11:43:37;32.92;;;13.18;;
21354;SDS011;10835;50.148;19.760;2022-11-20T11:46:27;38.35;;;14.70;;
21354;SDS011;10835;50.148;19.760;2022-11-20T11:48:59;36.80;;;13.23;;
21354;SDS011;10835;50.148;19.760;2022-11-20T11:51:32;38.83;;;14.02;;
21354;SDS011;10835;50.148;19.760;2022-11-20T11:54:09;36.53;;;14.30;;
21354;SDS011;10835;50.148;19.760;2022-11-20T11:56:43;27.55;;;12.38;;
21354;SDS011;10835;50.148;19.760;2022-11-20T11:59:15;30.17;;;11.60;;
21354;SDS011;10835;50.148;19.760;2022-11-20T12:01:50;33.25;;;12.45;;
21354;SDS011;10835;50.148;19.760;2022-11-20T12:04:24;28.42;;;13.40;;
21354;SDS011;10835;50.148;19.760;2022-11-20T12:07:09;31.15;;;11.77;;
21354;SDS011;10835;50.148;19.760;2022-11-20T12:10:01;27.60;;;12.38;;
21354;SDS011;10835;50.148;19.760;2022-11-20T12:12:34;29.02;;;12.45;;
21354;SDS011;10835;50.148;19.760;2022-11-20T12:15:10;35.35;;;13.25;;
21354;SDS011;10835;50.148;19.760;2022-11-20T12:17:43;41.60;;;14.30;;
21354;SDS011;10835;50.148;19.760;2022-11-20T12:20:11;31.50;;;12.23;;
21354;SDS011;10835;50.148;19.760;2022-11-20T12:22:47;32.50;;;11.85;;
21354;SDS011;10835;50.148;19.760;2022-11-20T12:25:21;32.50;;;12.00;;
21354;SDS011;10835;50.148;19.760;2022-11-20T12:31:02;34.85;;;13.35;;
21354;SDS011;10835;50.148;19.760;2022-11-20T12:33:45;25.42;;;11.13;;
21354;SDS011;10835;50.148;19.760;2022-11-20T12:36:24;35.13;;;14.02;;
21354;SDS011;10835;50.148;19.760;2022-11-20T12:39:07;31.20;;;12.02;;
21354;SDS011;10835;50.148;19.760;2022-11-20T12:41:59;36.90;;;14.23;;
21354;SDS011;10835;50.148;19.760;2022-11-20T12:45:00;37.78;;;15.73;;
21354;SDS011;10835;50.148;19.760;2022-11-20T12:47:59;35.28;;;15.07;;
21354;SDS011;10835;50.148;19.760;2022-11-20T12:50:39;39.90;;;14.15;;
21354;SDS011;10835;50.148;19.760;2022-11-20T12:53:38;34.35;;;14.75;;
21354;SDS011;10835;50.148;19.760;2022-11-20T12:56:17;35.05;;;13.05;;
21354;SDS011;10835;50.148;19.760;2022-11-20T12:59:00;30.92;;;12.52;;
21354;SDS011;10835;50.148;19.760;2022-11-20T13:01:44;34.42;;;12.13;;
21354;SDS011;10835;50.148;19.760;2022-11-20T13:04:24;31.70;;;12.00;;
21354;SDS011;10835;50.148;19.760;2022-11-20T13:07:08;31.67;;;12.90;;
21354;SDS011;10835;50.148;19.760;2022-11-20T13:09:39;28.38;;;13.20;;
21354;SDS011;10835;50.148;19.760;2022-11-20T13:12:12;33.53;;;13.57;;
21354;SDS011;10835;50.148;19.760;2022-11-20T13:14:45;37.50;;;14.48;;
21354;SDS011;10835;50.148;19.760;2022-11-20T13:17:20;38.50;;;14.80;;
21354;SDS011;10835;50.148;19.760;2022-11-20T13:19:57;31.63;;;13.95;;
21354;SDS011;10835;50.148;19.760;2022-11-20T13:22:28;40.35;;;16.10;;
21354;SDS011;10835;50.148;19.760;2022-11-20T13:25:09;45.40;;;16.90;;
21354;SDS011;10835;50.148;19.760;2022-11-20T13:27:46;44.45;;;17.25;;
21354;SDS011;10835;50.148;19.760;2022-11-20T13:30:15;34.08;;;16.38;;
21354;SDS011;10835;50.148;19.760;2022-11-20T13:32:49;45.00;;;17.70;;
21354;SDS011;10835;50.148;19.760;2022-11-20T13:35:27;43.22;;;17.83;;
21354;SDS011;10835;50.148;19.760;2022-11-20T13:38:02;44.90;;;16.70;;
21354;SDS011;10835;50.148;19.760;2022-11-20T13:40:36;35.17;;;17.33;;
21354;SDS011;10835;50.148;19.760;2022-11-20T13:43:15;40.33;;;16.58;;
21354;SDS011;10835;50.148;19.760;2022-11-20T13:45:58;39.90;;;13.82;;
21354;SDS011;10835;50.148;19.760;2022-11-20T13:48:31;36.53;;;16.73;;
21354;SDS011;10835;50.148;19.760;2022-11-20T13:51:09;40.97;;;15.38;;
21354;SDS011;10835;50.148;19.760;2022-11-20T13:57:14;40.90;;;14.48;;
21354;SDS011;10835;50.148;19.760;2022-11-20T14:00:09;39.95;;;14.63;;
21354;SDS011;10835;50.148;19.760;2022-11-20T14:02:43;35.65;;;14.68;;
21354;SDS011;10835;50.148;19.760;2022-11-20T14:05:15;34.55;;;14.65;;
21354;SDS011;10835;50.148;19.760;2022-11-20T14:07:49;42.63;;;15.95;;
21354;SDS011;10835;50.148;19.760;2022-11-20T14:10:22;39.72;;;16.15;;
21354;SDS011;10835;50.148;19.760;2022-11-20T14:12:57;35.03;;;14.75;;
21354;SDS011;10835;50.148;19.760;2022-11-20T14:15:27;37.90;;;15.52;;
21354;SDS011;10835;50.148;19.760;2022-11-20T14:17:57;35.35;;;15.88;;
21354;SDS011;10835;50.148;19.760;2022-11-20T14:20:27;40.83;;;15.35;;
21354;SDS011;10835;50.148;19.760;2022-11-20T14:23:01;38.78;;;16.30;;
21354;SDS011;10835;50.148;19.760;2022-11-20T14:25:31;38.60;;;15.52;;
21354;SDS011;10835;50.148;19.760;2022-11-20T14:28:00;35.30;;;16.83;;
21354;SDS011;10835;50.148;19.760;2022-11-20T14:30:42;42.65;;;17.85;;
21354;SDS011;10835;50.148;19.760;2022-11-20T14:33:12;41.08;;;15.07;;
21354;SDS011;10835;50.148;19.760;2022-11-20T14:35:47;38.92;;;15.65;;
21354;SDS011;10835;50.148;19.760;2022-11-20T14:38:18;36.00;;;16.35;;
21354;SDS011;10835;50.148;19.760;2022-11-20T14:40:49;42.78;;;16.17;;
21354;SDS011;10835;50.148;19.760;2022-11-20T14:43:18;37.70;;;15.73;;
21354;SDS011;10835;50.148;19.760;2022-11-20T14:45:52;37.53;;;16.38;;